sensor_id;sensor_type;location;lat;lon;timestamp;P1;durP1;ratioP1;P2;durP2;ratioP2
19758;SDS011;10038;42.662;23.278;2022-09-01T00:01:09;13.43;;;10.20;;
19758;SDS011;10038;42.662;23.278;2022-09-01T00:03:39;12.90;;;9.10;;
19758;SDS011;10038;42.662;23.278;2022-09-01T00:06:06;15.13;;;10.77;;
19758;SDS011;10038;42.662;23.278;2022-09-01T00:08:34;15.50;;;10.20;;
19758;SDS011;10038;42.662;23.278;2022-09-01T00:11:01;12.90;;;10.10;;
19758;SDS011;10038;42.662;23.278;2022-09-01T00:13:29;11.57;;;9.00;;
19758;SDS011;10038;42.662;23.278;2022-09-01T00:15:58;12.70;;;9.73;;
19758;SDS011;10038;42.662;23.278;2022-09-01T00:18:25;18.70;;;10.70;;
19758;SDS011;10038;42.662;23.278;2022-09-01T00:20:51;15.40;;;11.10;;
19758;SDS011;10038;42.662;23.278;2022-09-01T00:23:19;15.40;;;10.57;;
19758;SDS011;10038;42.662;23.278;2022-09-01T00:25:46;16.53;;;11.10;;
19758;SDS011;10038;42.662;23.278;2022-09-01T00:28:13;14.43;;;11.00;;
19758;SDS011;10038;42.662;23.278;2022-09-01T00:30:41;21.17;;;11.00;;
19758;SDS011;10038;42.662;23.278;2022-09-01T00:33:08;14.33;;;10.33;;
19758;SDS011;10038;42.662;23.278;2022-09-01T00:35:34;16.40;;;11.00;;
19758;SDS011;10038;42.662;23.278;2022-09-01T00:38:01;15.47;;;11.13;;
19758;SDS011;10038;42.662;23.278;2022-09-01T00:40:28;13.57;;;10.57;;
19758;SDS011;10038;42.662;23.278;2022-09-01T00:42:55;14.70;;;10.50;;
19758;SDS011;10038;42.662;23.278;2022-09-01T00:45:22;15.83;;;11.30;;
19758;SDS011;10038;42.662;23.278;2022-09-01T00:47:50;14.57;;;10.80;;
19758;SDS011;10038;42.662;23.278;2022-09-01T00:50:18;16.23;;;10.70;;
19758;SDS011;10038;42.662;23.278;2022-09-01T00:52:47;15.13;;;11.30;;
19758;SDS011;10038;42.662;23.278;2022-09-01T00:55:17;19.57;;;12.03;;
19758;SDS011;10038;42.662;23.278;2022-09-01T00:57:48;15.07;;;10.40;;
19758;SDS011;10038;42.662;23.278;2022-09-01T01:00:16;18.37;;;11.60;;
19758;SDS011;10038;42.662;23.278;2022-09-01T01:02:46;16.23;;;11.80;;
19758;SDS011;10038;42.662;23.278;2022-09-01T01:05:15;14.10;;;10.97;;
19758;SDS011;10038;42.662;23.278;2022-09-01T01:07:42;16.30;;;11.87;;
19758;SDS011;10038;42.662;23.278;2022-09-01T01:10:12;18.33;;;12.60;;
19758;SDS011;10038;42.662;23.278;2022-09-01T01:12:40;13.60;;;10.53;;
19758;SDS011;10038;42.662;23.278;2022-09-01T01:15:07;20.60;;;12.57;;
19758;SDS011;10038;42.662;23.278;2022-09-01T01:17:35;18.70;;;12.87;;
19758;SDS011;10038;42.662;23.278;2022-09-01T01:20:03;15.40;;;11.43;;
19758;SDS011;10038;42.662;23.278;2022-09-01T01:22:51;15.90;;;12.50;;
19758;SDS011;10038;42.662;23.278;2022-09-01T01:25:32;24.47;;;12.20;;
19758;SDS011;10038;42.662;23.278;2022-09-01T01:28:03;19.57;;;12.43;;
19758;SDS011;10038;42.662;23.278;2022-09-01T01:30:35;17.57;;;12.73;;
19758;SDS011;10038;42.662;23.278;2022-09-01T01:33:03;16.17;;;11.13;;
19758;SDS011;10038;42.662;23.278;2022-09-01T01:35:31;14.43;;;11.20;;
19758;SDS011;10038;42.662;23.278;2022-09-01T01:37:59;15.80;;;11.20;;
19758;SDS011;10038;42.662;23.278;2022-09-01T01:40:28;21.00;;;10.97;;
19758;SDS011;10038;42.662;23.278;2022-09-01T01:42:56;19.37;;;11.27;;
19758;SDS011;10038;42.662;23.278;2022-09-01T01:45:25;16.40;;;12.03;;
19758;SDS011;10038;42.662;23.278;2022-09-01T01:47:53;19.67;;;11.90;;
19758;SDS011;10038;42.662;23.278;2022-09-01T01:50:21;15.37;;;11.83;;
19758;SDS011;10038;42.662;23.278;2022-09-01T01:52:49;21.43;;;12.53;;
19758;SDS011;10038;42.662;23.278;2022-09-01T01:55:17;18.13;;;12.97;;
19758;SDS011;10038;42.662;23.278;2022-09-01T01:57:44;19.40;;;13.10;;
19758;SDS011;10038;42.662;23.278;2022-09-01T02:00:17;18.90;;;13.90;;
19758;SDS011;10038;42.662;23.278;2022-09-01T02:02:47;23.20;;;13.60;;
19758;SDS011;10038;42.662;23.278;2022-09-01T02:05:20;20.80;;;13.43;;
19758;SDS011;10038;42.662;23.278;2022-09-01T02:07:50;20.20;;;13.70;;
19758;SDS011;10038;42.662;23.278;2022-09-01T02:10:20;20.70;;;12.73;;
19758;SDS011;10038;42.662;23.278;2022-09-01T02:12:49;19.00;;;12.57;;
19758;SDS011;10038;42.662;23.278;2022-09-01T02:15:17;18.50;;;12.90;;
19758;SDS011;10038;42.662;23.278;2022-09-01T02:17:45;24.00;;;15.37;;
19758;SDS011;10038;42.662;23.278;2022-09-01T02:20:13;23.07;;;15.40;;
19758;SDS011;10038;42.662;23.278;2022-09-01T02:22:41;22.47;;;14.50;;
19758;SDS011;10038;42.662;23.278;2022-09-01T02:25:09;30.03;;;14.20;;
19758;SDS011;10038;42.662;23.278;2022-09-01T02:27:40;24.93;;;16.00;;
19758;SDS011;10038;42.662;23.278;2022-09-01T02:30:08;20.40;;;14.60;;
19758;SDS011;10038;42.662;23.278;2022-09-01T02:32:38;22.60;;;12.43;;
19758;SDS011;10038;42.662;23.278;2022-09-01T02:35:06;28.23;;;15.93;;
19758;SDS011;10038;42.662;23.278;2022-09-01T02:37:35;22.00;;;13.80;;
19758;SDS011;10038;42.662;23.278;2022-09-01T02:40:04;19.93;;;13.83;;
19758;SDS011;10038;42.662;23.278;2022-09-01T02:42:34;18.43;;;13.37;;
19758;SDS011;10038;42.662;23.278;2022-09-01T02:45:05;22.00;;;14.27;;
19758;SDS011;10038;42.662;23.278;2022-09-01T02:47:41;27.10;;;15.53;;
19758;SDS011;10038;42.662;23.278;2022-09-01T02:50:13;22.30;;;14.00;;
19758;SDS011;10038;42.662;23.278;2022-09-01T02:52:43;23.73;;;14.57;;
19758;SDS011;10038;42.662;23.278;2022-09-01T02:55:12;21.07;;;13.87;;
19758;SDS011;10038;42.662;23.278;2022-09-01T02:57:46;29.30;;;14.70;;
19758;SDS011;10038;42.662;23.278;2022-09-01T03:00:14;25.47;;;15.70;;
19758;SDS011;10038;42.662;23.278;2022-09-01T03:02:51;21.10;;;14.20;;
19758;SDS011;10038;42.662;23.278;2022-09-01T03:05:19;21.47;;;13.70;;
19758;SDS011;10038;42.662;23.278;2022-09-01T03:07:50;22.73;;;14.30;;
19758;SDS011;10038;42.662;23.278;2022-09-01T03:10:21;20.47;;;12.60;;
19758;SDS011;10038;42.662;23.278;2022-09-01T03:12:51;25.50;;;15.80;;
19758;SDS011;10038;42.662;23.278;2022-09-01T03:15:19;26.77;;;14.37;;
19758;SDS011;10038;42.662;23.278;2022-09-01T03:17:47;20.77;;;13.77;;
19758;SDS011;10038;42.662;23.278;2022-09-01T03:20:15;24.80;;;16.23;;
19758;SDS011;10038;42.662;23.278;2022-09-01T03:22:43;23.30;;;15.40;;
19758;SDS011;10038;42.662;23.278;2022-09-01T03:25:11;22.77;;;14.97;;
19758;SDS011;10038;42.662;23.278;2022-09-01T03:27:38;24.17;;;15.73;;
19758;SDS011;10038;42.662;23.278;2022-09-01T03:30:06;24.83;;;15.00;;
19758;SDS011;10038;42.662;23.278;2022-09-01T03:32:33;23.40;;;16.03;;
19758;SDS011;10038;42.662;23.278;2022-09-01T03:35:00;22.67;;;14.83;;
19758;SDS011;10038;42.662;23.278;2022-09-01T03:37:29;23.00;;;16.40;;
19758;SDS011;10038;42.662;23.278;2022-09-01T03:39:55;26.90;;;15.30;;
19758;SDS011;10038;42.662;23.278;2022-09-01T03:42:23;29.97;;;15.37;;
19758;SDS011;10038;42.662;23.278;2022-09-01T03:44:53;19.43;;;14.40;;
19758;SDS011;10038;42.662;23.278;2022-09-01T03:47:21;21.70;;;15.00;;
19758;SDS011;10038;42.662;23.278;2022-09-01T03:49:48;28.20;;;16.87;;
19758;SDS011;10038;42.662;23.278;2022-09-01T03:52:15;21.93;;;15.93;;
19758;SDS011;10038;42.662;23.278;2022-09-01T03:54:44;25.50;;;16.40;;
19758;SDS011;10038;42.662;23.278;2022-09-01T03:57:12;28.37;;;17.47;;
19758;SDS011;10038;42.662;23.278;2022-09-01T03:59:38;30.50;;;17.67;;
19758;SDS011;10038;42.662;23.278;2022-09-01T04:02:09;26.00;;;16.60;;
19758;SDS011;10038;42.662;23.278;2022-09-01T04:04:37;26.27;;;16.80;;
19758;SDS011;10038;42.662;23.278;2022-09-01T04:07:03;26.27;;;18.03;;
19758;SDS011;10038;42.662;23.278;2022-09-01T04:09:31;24.77;;;16.07;;
19758;SDS011;10038;42.662;23.278;2022-09-01T04:12:02;25.83;;;15.70;;
19758;SDS011;10038;42.662;23.278;2022-09-01T04:14:30;23.80;;;14.50;;
19758;SDS011;10038;42.662;23.278;2022-09-01T04:16:57;23.70;;;15.60;;
19758;SDS011;10038;42.662;23.278;2022-09-01T04:19:41;24.50;;;15.23;;
19758;SDS011;10038;42.662;23.278;2022-09-01T04:22:08;20.33;;;14.70;;
19758;SDS011;10038;42.662;23.278;2022-09-01T04:24:37;20.50;;;12.67;;
19758;SDS011;10038;42.662;23.278;2022-09-01T04:27:11;22.60;;;12.80;;
19758;SDS011;10038;42.662;23.278;2022-09-01T04:29:39;18.13;;;13.20;;
19758;SDS011;10038;42.662;23.278;2022-09-01T04:32:07;22.40;;;14.20;;
19758;SDS011;10038;42.662;23.278;2022-09-01T04:34:37;22.17;;;14.63;;
19758;SDS011;10038;42.662;23.278;2022-09-01T04:37:06;24.70;;;15.57;;
19758;SDS011;10038;42.662;23.278;2022-09-01T04:39:34;18.23;;;13.30;;
19758;SDS011;10038;42.662;23.278;2022-09-01T04:42:03;21.27;;;13.20;;
19758;SDS011;10038;42.662;23.278;2022-09-01T04:44:34;21.47;;;14.30;;
19758;SDS011;10038;42.662;23.278;2022-09-01T04:47:01;19.93;;;14.20;;
19758;SDS011;10038;42.662;23.278;2022-09-01T04:49:35;22.73;;;14.17;;
19758;SDS011;10038;42.662;23.278;2022-09-01T04:52:02;19.13;;;14.60;;
19758;SDS011;10038;42.662;23.278;2022-09-01T04:54:29;22.53;;;15.00;;
19758;SDS011;10038;42.662;23.278;2022-09-01T04:57:01;22.03;;;13.43;;
19758;SDS011;10038;42.662;23.278;2022-09-01T04:59:28;29.63;;;13.53;;
19758;SDS011;10038;42.662;23.278;2022-09-01T05:01:56;22.83;;;15.43;;
19758;SDS011;10038;42.662;23.278;2022-09-01T05:04:25;24.50;;;14.00;;
19758;SDS011;10038;42.662;23.278;2022-09-01T05:06:56;20.77;;;13.00;;
19758;SDS011;10038;42.662;23.278;2022-09-01T05:09:25;23.63;;;14.47;;
19758;SDS011;10038;42.662;23.278;2022-09-01T05:11:53;19.83;;;14.93;;
19758;SDS011;10038;42.662;23.278;2022-09-01T05:14:21;20.70;;;14.37;;
19758;SDS011;10038;42.662;23.278;2022-09-01T05:16:51;22.30;;;13.90;;
19758;SDS011;10038;42.662;23.278;2022-09-01T05:19:24;22.90;;;15.57;;
19758;SDS011;10038;42.662;23.278;2022-09-01T05:21:53;19.90;;;13.97;;
19758;SDS011;10038;42.662;23.278;2022-09-01T05:24:22;29.10;;;15.70;;
19758;SDS011;10038;42.662;23.278;2022-09-01T05:26:49;23.10;;;15.07;;
19758;SDS011;10038;42.662;23.278;2022-09-01T05:29:16;23.13;;;15.03;;
19758;SDS011;10038;42.662;23.278;2022-09-01T05:31:46;21.40;;;14.27;;
19758;SDS011;10038;42.662;23.278;2022-09-01T05:34:14;18.10;;;13.67;;
19758;SDS011;10038;42.662;23.278;2022-09-01T05:36:53;20.83;;;14.47;;
19758;SDS011;10038;42.662;23.278;2022-09-01T05:39:22;17.17;;;12.50;;
19758;SDS011;10038;42.662;23.278;2022-09-01T05:41:49;16.57;;;11.87;;
19758;SDS011;10038;42.662;23.278;2022-09-01T05:44:16;17.00;;;12.97;;
19758;SDS011;10038;42.662;23.278;2022-09-01T05:46:46;19.90;;;14.77;;
19758;SDS011;10038;42.662;23.278;2022-09-01T05:49:14;24.53;;;13.60;;
19758;SDS011;10038;42.662;23.278;2022-09-01T05:51:43;17.90;;;12.47;;
19758;SDS011;10038;42.662;23.278;2022-09-01T05:54:15;21.40;;;14.50;;
19758;SDS011;10038;42.662;23.278;2022-09-01T05:56:42;17.47;;;13.87;;
19758;SDS011;10038;42.662;23.278;2022-09-01T05:59:10;22.37;;;17.07;;
19758;SDS011;10038;42.662;23.278;2022-09-01T06:01:37;19.33;;;13.50;;
19758;SDS011;10038;42.662;23.278;2022-09-01T06:04:05;19.93;;;14.00;;
19758;SDS011;10038;42.662;23.278;2022-09-01T06:06:34;21.40;;;15.07;;
19758;SDS011;10038;42.662;23.278;2022-09-01T06:09:05;23.30;;;13.97;;
19758;SDS011;10038;42.662;23.278;2022-09-01T06:11:34;20.40;;;14.63;;
19758;SDS011;10038;42.662;23.278;2022-09-01T06:14:01;19.50;;;13.80;;
19758;SDS011;10038;42.662;23.278;2022-09-01T06:16:32;20.60;;;14.13;;
19758;SDS011;10038;42.662;23.278;2022-09-01T06:19:00;22.13;;;15.50;;
19758;SDS011;10038;42.662;23.278;2022-09-01T06:21:27;23.27;;;15.33;;
19758;SDS011;10038;42.662;23.278;2022-09-01T06:23:55;21.63;;;15.60;;
19758;SDS011;10038;42.662;23.278;2022-09-01T06:26:24;20.13;;;15.80;;
19758;SDS011;10038;42.662;23.278;2022-09-01T06:28:54;19.50;;;14.27;;
19758;SDS011;10038;42.662;23.278;2022-09-01T06:31:23;18.07;;;14.30;;
19758;SDS011;10038;42.662;23.278;2022-09-01T06:33:51;22.87;;;15.13;;
19758;SDS011;10038;42.662;23.278;2022-09-01T06:36:19;16.80;;;13.40;;
19758;SDS011;10038;42.662;23.278;2022-09-01T06:38:48;18.47;;;14.80;;
19758;SDS011;10038;42.662;23.278;2022-09-01T06:41:17;20.60;;;16.73;;
19758;SDS011;10038;42.662;23.278;2022-09-01T06:43:44;20.60;;;14.97;;
19758;SDS011;10038;42.662;23.278;2022-09-01T06:46:13;18.40;;;14.43;;
19758;SDS011;10038;42.662;23.278;2022-09-01T06:48:41;20.80;;;14.93;;
19758;SDS011;10038;42.662;23.278;2022-09-01T06:51:11;23.23;;;16.47;;
19758;SDS011;10038;42.662;23.278;2022-09-01T06:53:40;17.97;;;14.37;;
19758;SDS011;10038;42.662;23.278;2022-09-01T06:56:07;18.87;;;15.33;;
19758;SDS011;10038;42.662;23.278;2022-09-01T06:58:38;17.33;;;15.47;;
19758;SDS011;10038;42.662;23.278;2022-09-01T07:01:06;22.57;;;15.97;;
19758;SDS011;10038;42.662;23.278;2022-09-01T07:03:41;21.80;;;18.30;;
19758;SDS011;10038;42.662;23.278;2022-09-01T07:06:09;25.97;;;18.50;;
19758;SDS011;10038;42.662;23.278;2022-09-01T07:08:39;19.50;;;16.33;;
19758;SDS011;10038;42.662;23.278;2022-09-01T07:11:16;23.80;;;17.50;;
19758;SDS011;10038;42.662;23.278;2022-09-01T07:13:48;21.97;;;18.40;;
19758;SDS011;10038;42.662;23.278;2022-09-01T07:16:17;21.60;;;16.70;;
19758;SDS011;10038;42.662;23.278;2022-09-01T07:18:47;23.83;;;17.27;;
19758;SDS011;10038;42.662;23.278;2022-09-01T07:21:15;20.33;;;17.93;;
19758;SDS011;10038;42.662;23.278;2022-09-01T07:23:42;27.47;;;19.80;;
19758;SDS011;10038;42.662;23.278;2022-09-01T07:26:09;20.97;;;16.60;;
19758;SDS011;10038;42.662;23.278;2022-09-01T07:28:39;21.10;;;18.40;;
19758;SDS011;10038;42.662;23.278;2022-09-01T07:31:06;25.70;;;18.90;;
19758;SDS011;10038;42.662;23.278;2022-09-01T07:33:33;24.07;;;19.27;;
19758;SDS011;10038;42.662;23.278;2022-09-01T07:36:02;23.30;;;18.57;;
19758;SDS011;10038;42.662;23.278;2022-09-01T07:38:30;22.67;;;19.60;;
19758;SDS011;10038;42.662;23.278;2022-09-01T07:40:57;24.73;;;18.70;;
19758;SDS011;10038;42.662;23.278;2022-09-01T07:43:24;24.27;;;19.50;;
19758;SDS011;10038;42.662;23.278;2022-09-01T07:45:53;26.70;;;18.53;;
19758;SDS011;10038;42.662;23.278;2022-09-01T07:48:24;24.00;;;17.00;;
19758;SDS011;10038;42.662;23.278;2022-09-01T07:50:53;22.97;;;18.20;;
19758;SDS011;10038;42.662;23.278;2022-09-01T07:53:23;20.07;;;17.63;;
19758;SDS011;10038;42.662;23.278;2022-09-01T07:55:53;26.23;;;18.90;;
19758;SDS011;10038;42.662;23.278;2022-09-01T07:58:21;26.23;;;21.10;;
19758;SDS011;10038;42.662;23.278;2022-09-01T08:00:49;26.57;;;19.17;;
19758;SDS011;10038;42.662;23.278;2022-09-01T08:03:19;21.40;;;17.87;;
19758;SDS011;10038;42.662;23.278;2022-09-01T08:05:48;24.17;;;19.10;;
19758;SDS011;10038;42.662;23.278;2022-09-01T08:08:19;24.07;;;19.87;;
19758;SDS011;10038;42.662;23.278;2022-09-01T08:10:47;23.70;;;19.97;;
19758;SDS011;10038;42.662;23.278;2022-09-01T08:13:15;24.13;;;19.00;;
19758;SDS011;10038;42.662;23.278;2022-09-01T08:15:42;21.67;;;18.00;;
19758;SDS011;10038;42.662;23.278;2022-09-01T08:18:09;24.03;;;18.50;;
19758;SDS011;10038;42.662;23.278;2022-09-01T08:20:37;25.20;;;18.70;;
19758;SDS011;10038;42.662;23.278;2022-09-01T08:23:10;22.37;;;19.13;;
19758;SDS011;10038;42.662;23.278;2022-09-01T08:25:37;23.80;;;18.60;;
19758;SDS011;10038;42.662;23.278;2022-09-01T08:28:06;23.40;;;19.00;;
19758;SDS011;10038;42.662;23.278;2022-09-01T08:30:34;20.13;;;18.03;;
19758;SDS011;10038;42.662;23.278;2022-09-01T08:33:01;20.63;;;17.33;;
19758;SDS011;10038;42.662;23.278;2022-09-01T08:35:28;21.03;;;17.73;;
19758;SDS011;10038;42.662;23.278;2022-09-01T08:37:55;16.97;;;15.23;;
19758;SDS011;10038;42.662;23.278;2022-09-01T08:40:22;18.47;;;16.47;;
19758;SDS011;10038;42.662;23.278;2022-09-01T08:42:52;16.80;;;15.10;;
19758;SDS011;10038;42.662;23.278;2022-09-01T08:45:32;22.77;;;15.00;;
19758;SDS011;10038;42.662;23.278;2022-09-01T08:48:08;15.47;;;13.40;;
19758;SDS011;10038;42.662;23.278;2022-09-01T08:50:41;17.30;;;15.60;;
19758;SDS011;10038;42.662;23.278;2022-09-01T08:53:12;20.47;;;14.17;;
19758;SDS011;10038;42.662;23.278;2022-09-01T08:55:48;18.43;;;15.47;;
19758;SDS011;10038;42.662;23.278;2022-09-01T08:58:18;16.10;;;14.40;;
19758;SDS011;10038;42.662;23.278;2022-09-01T09:00:48;16.40;;;14.10;;
19758;SDS011;10038;42.662;23.278;2022-09-01T09:03:25;19.00;;;16.90;;
19758;SDS011;10038;42.662;23.278;2022-09-01T09:06:01;15.90;;;13.47;;
19758;SDS011;10038;42.662;23.278;2022-09-01T09:08:46;15.13;;;13.57;;
19758;SDS011;10038;42.662;23.278;2022-09-01T09:11:21;16.73;;;15.00;;
19758;SDS011;10038;42.662;23.278;2022-09-01T09:14:01;16.00;;;14.40;;
19758;SDS011;10038;42.662;23.278;2022-09-01T09:16:39;14.20;;;12.90;;
19758;SDS011;10038;42.662;23.278;2022-09-01T09:19:09;13.40;;;12.10;;
19758;SDS011;10038;42.662;23.278;2022-09-01T09:21:42;13.50;;;12.10;;
19758;SDS011;10038;42.662;23.278;2022-09-01T09:24:12;15.53;;;12.30;;
19758;SDS011;10038;42.662;23.278;2022-09-01T09:26:47;12.47;;;11.10;;
19758;SDS011;10038;42.662;23.278;2022-09-01T09:29:14;14.20;;;12.67;;
19758;SDS011;10038;42.662;23.278;2022-09-01T09:31:43;16.17;;;13.00;;
19758;SDS011;10038;42.662;23.278;2022-09-01T09:34:17;14.20;;;12.90;;
19758;SDS011;10038;42.662;23.278;2022-09-01T09:36:57;14.17;;;12.70;;
19758;SDS011;10038;42.662;23.278;2022-09-01T09:39:26;15.00;;;12.83;;
19758;SDS011;10038;42.662;23.278;2022-09-01T09:42:01;16.57;;;13.33;;
19758;SDS011;10038;42.662;23.278;2022-09-01T09:44:38;13.70;;;12.30;;
19758;SDS011;10038;42.662;23.278;2022-09-01T09:47:10;14.47;;;12.60;;
19758;SDS011;10038;42.662;23.278;2022-09-01T09:50:04;15.57;;;13.97;;
19758;SDS011;10038;42.662;23.278;2022-09-01T09:52:42;14.23;;;12.87;;
19758;SDS011;10038;42.662;23.278;2022-09-01T09:55:17;22.03;;;13.57;;
19758;SDS011;10038;42.662;23.278;2022-09-01T09:57:47;15.43;;;12.43;;
19758;SDS011;10038;42.662;23.278;2022-09-01T10:00:18;14.53;;;12.93;;
19758;SDS011;10038;42.662;23.278;2022-09-01T10:02:51;15.00;;;12.17;;
19758;SDS011;10038;42.662;23.278;2022-09-01T10:05:26;17.00;;;12.13;;
19758;SDS011;10038;42.662;23.278;2022-09-01T10:07:58;14.60;;;11.40;;
19758;SDS011;10038;42.662;23.278;2022-09-01T10:10:30;15.73;;;11.77;;
19758;SDS011;10038;42.662;23.278;2022-09-01T10:13:03;12.37;;;10.63;;
19758;SDS011;10038;42.662;23.278;2022-09-01T10:15:33;11.53;;;10.50;;
19758;SDS011;10038;42.662;23.278;2022-09-01T10:18:03;10.60;;;9.60;;
19758;SDS011;10038;42.662;23.278;2022-09-01T10:20:32;11.87;;;9.30;;
19758;SDS011;10038;42.662;23.278;2022-09-01T10:23:02;10.60;;;9.57;;
19758;SDS011;10038;42.662;23.278;2022-09-01T10:25:29;12.20;;;10.80;;
19758;SDS011;10038;42.662;23.278;2022-09-01T10:28:01;10.50;;;9.43;;
19758;SDS011;10038;42.662;23.278;2022-09-01T10:30:35;13.33;;;9.97;;
19758;SDS011;10038;42.662;23.278;2022-09-01T10:33:11;10.83;;;9.73;;
19758;SDS011;10038;42.662;23.278;2022-09-01T10:35:40;15.47;;;12.30;;
19758;SDS011;10038;42.662;23.278;2022-09-01T10:38:14;12.73;;;11.00;;
19758;SDS011;10038;42.662;23.278;2022-09-01T10:40:44;12.73;;;11.43;;
19758;SDS011;10038;42.662;23.278;2022-09-01T10:43:22;14.67;;;11.50;;
19758;SDS011;10038;42.662;23.278;2022-09-01T10:45:52;12.97;;;11.67;;
19758;SDS011;10038;42.662;23.278;2022-09-01T10:48:28;13.77;;;11.60;;
19758;SDS011;10038;42.662;23.278;2022-09-01T10:54:02;12.90;;;11.47;;
19758;SDS011;10038;42.662;23.278;2022-09-01T10:56:35;12.13;;;11.03;;
19758;SDS011;10038;42.662;23.278;2022-09-01T10:59:06;12.13;;;10.93;;
19758;SDS011;10038;42.662;23.278;2022-09-01T11:07:38;17.20;;;10.97;;
19758;SDS011;10038;42.662;23.278;2022-09-01T11:10:09;14.33;;;10.73;;
19758;SDS011;10038;42.662;23.278;2022-09-01T11:13:00;14.53;;;10.93;;
19758;SDS011;10038;42.662;23.278;2022-09-01T11:15:43;14.60;;;11.13;;
19758;SDS011;10038;42.662;23.278;2022-09-01T11:18:13;11.17;;;10.00;;
19758;SDS011;10038;42.662;23.278;2022-09-01T11:20:43;15.27;;;10.10;;
19758;SDS011;10038;42.662;23.278;2022-09-01T11:23:11;10.27;;;9.13;;
19758;SDS011;10038;42.662;23.278;2022-09-01T11:25:45;10.80;;;9.00;;
19758;SDS011;10038;42.662;23.278;2022-09-01T11:36:53;13.40;;;10.57;;
19758;SDS011;10038;42.662;23.278;2022-09-01T11:39:31;14.10;;;10.37;;
19758;SDS011;10038;42.662;23.278;2022-09-01T11:42:02;10.13;;;9.10;;
19758;SDS011;10038;42.662;23.278;2022-09-01T11:44:35;11.70;;;9.70;;
19758;SDS011;10038;42.662;23.278;2022-09-01T11:47:09;11.33;;;10.00;;
19758;SDS011;10038;42.662;23.278;2022-09-01T11:49:46;9.47;;;7.80;;
19758;SDS011;10038;42.662;23.278;2022-09-01T11:52:18;10.63;;;9.63;;
19758;SDS011;10038;42.662;23.278;2022-09-01T11:54:46;11.10;;;8.57;;
19758;SDS011;10038;42.662;23.278;2022-09-01T11:57:25;11.07;;;8.00;;
19758;SDS011;10038;42.662;23.278;2022-09-01T11:59:54;9.30;;;8.40;;
19758;SDS011;10038;42.662;23.278;2022-09-01T12:02:23;11.10;;;8.57;;
19758;SDS011;10038;42.662;23.278;2022-09-01T12:04:52;10.23;;;9.23;;
19758;SDS011;10038;42.662;23.278;2022-09-01T12:07:25;10.80;;;8.93;;
19758;SDS011;10038;42.662;23.278;2022-09-01T12:10:03;10.87;;;8.60;;
19758;SDS011;10038;42.662;23.278;2022-09-01T12:12:38;9.77;;;8.10;;
19758;SDS011;10038;42.662;23.278;2022-09-01T12:15:07;11.33;;;9.77;;
19758;SDS011;10038;42.662;23.278;2022-09-01T12:17:41;12.60;;;8.20;;
19758;SDS011;10038;42.662;23.278;2022-09-01T12:20:18;10.40;;;9.40;;
19758;SDS011;10038;42.662;23.278;2022-09-01T12:22:52;13.73;;;9.50;;
19758;SDS011;10038;42.662;23.278;2022-09-01T12:25:19;10.23;;;9.13;;
19758;SDS011;10038;42.662;23.278;2022-09-01T12:27:48;11.47;;;9.53;;
19758;SDS011;10038;42.662;23.278;2022-09-01T12:30:15;10.67;;;9.40;;
19758;SDS011;10038;42.662;23.278;2022-09-01T12:32:51;13.33;;;9.60;;
19758;SDS011;10038;42.662;23.278;2022-09-01T12:35:20;10.40;;;9.30;;
19758;SDS011;10038;42.662;23.278;2022-09-01T12:37:48;10.30;;;9.30;;
19758;SDS011;10038;42.662;23.278;2022-09-01T12:40:22;9.80;;;8.50;;
19758;SDS011;10038;42.662;23.278;2022-09-01T12:42:51;9.50;;;8.50;;
19758;SDS011;10038;42.662;23.278;2022-09-01T12:45:38;11.20;;;9.33;;
19758;SDS011;10038;42.662;23.278;2022-09-01T12:48:06;10.17;;;9.10;;
19758;SDS011;10038;42.662;23.278;2022-09-01T12:50:49;10.43;;;9.37;;
19758;SDS011;10038;42.662;23.278;2022-09-01T12:53:21;13.83;;;9.83;;
19758;SDS011;10038;42.662;23.278;2022-09-01T12:56:15;12.67;;;8.77;;
19758;SDS011;10038;42.662;23.278;2022-09-01T12:58:48;14.73;;;10.10;;
19758;SDS011;10038;42.662;23.278;2022-09-01T13:01:29;11.83;;;9.97;;
19758;SDS011;10038;42.662;23.278;2022-09-01T13:04:11;10.50;;;9.47;;
19758;SDS011;10038;42.662;23.278;2022-09-01T13:06:40;10.47;;;8.50;;
19758;SDS011;10038;42.662;23.278;2022-09-01T13:09:07;10.17;;;8.43;;
19758;SDS011;10038;42.662;23.278;2022-09-01T13:11:35;11.40;;;9.03;;
19758;SDS011;10038;42.662;23.278;2022-09-01T13:14:02;10.00;;;9.00;;
19758;SDS011;10038;42.662;23.278;2022-09-01T13:16:29;9.13;;;8.23;;
19758;SDS011;10038;42.662;23.278;2022-09-01T13:18:56;10.50;;;9.20;;
19758;SDS011;10038;42.662;23.278;2022-09-01T13:21:23;10.10;;;8.33;;
19758;SDS011;10038;42.662;23.278;2022-09-01T13:23:51;13.87;;;10.30;;
19758;SDS011;10038;42.662;23.278;2022-09-01T13:26:18;11.63;;;10.53;;
19758;SDS011;10038;42.662;23.278;2022-09-01T13:28:46;11.77;;;10.53;;
19758;SDS011;10038;42.662;23.278;2022-09-01T13:31:14;11.93;;;9.67;;
19758;SDS011;10038;42.662;23.278;2022-09-01T13:33:40;12.10;;;10.70;;
19758;SDS011;10038;42.662;23.278;2022-09-01T13:36:07;10.73;;;9.70;;
19758;SDS011;10038;42.662;23.278;2022-09-01T13:38:34;11.50;;;10.30;;
19758;SDS011;10038;42.662;23.278;2022-09-01T13:41:01;12.90;;;10.07;;
19758;SDS011;10038;42.662;23.278;2022-09-01T13:43:28;13.10;;;10.17;;
19758;SDS011;10038;42.662;23.278;2022-09-01T13:45:57;10.07;;;9.07;;
19758;SDS011;10038;42.662;23.278;2022-09-01T13:48:23;14.70;;;9.37;;
19758;SDS011;10038;42.662;23.278;2022-09-01T13:50:52;11.40;;;9.57;;
19758;SDS011;10038;42.662;23.278;2022-09-01T13:53:20;12.17;;;10.03;;
19758;SDS011;10038;42.662;23.278;2022-09-01T13:55:47;10.80;;;9.73;;
19758;SDS011;10038;42.662;23.278;2022-09-01T13:58:14;10.47;;;9.43;;
19758;SDS011;10038;42.662;23.278;2022-09-01T14:00:42;12.47;;;9.63;;
19758;SDS011;10038;42.662;23.278;2022-09-01T14:03:12;11.03;;;9.30;;
19758;SDS011;10038;42.662;23.278;2022-09-01T14:05:42;10.73;;;9.47;;
19758;SDS011;10038;42.662;23.278;2022-09-01T14:08:10;10.87;;;9.40;;
19758;SDS011;10038;42.662;23.278;2022-09-01T14:10:39;12.33;;;10.03;;
19758;SDS011;10038;42.662;23.278;2022-09-01T14:13:09;9.33;;;8.43;;
19758;SDS011;10038;42.662;23.278;2022-09-01T14:15:37;13.87;;;9.43;;
19758;SDS011;10038;42.662;23.278;2022-09-01T14:18:04;13.50;;;9.40;;
19758;SDS011;10038;42.662;23.278;2022-09-01T14:20:33;14.00;;;10.17;;
19758;SDS011;10038;42.662;23.278;2022-09-01T14:23:03;10.70;;;9.60;;
19758;SDS011;10038;42.662;23.278;2022-09-01T14:25:32;16.50;;;10.80;;
19758;SDS011;10038;42.662;23.278;2022-09-01T14:27:59;13.10;;;10.97;;
19758;SDS011;10038;42.662;23.278;2022-09-01T14:30:29;14.83;;;11.17;;
19758;SDS011;10038;42.662;23.278;2022-09-01T14:32:57;14.53;;;10.47;;
19758;SDS011;10038;42.662;23.278;2022-09-01T14:35:24;11.67;;;10.30;;
19758;SDS011;10038;42.662;23.278;2022-09-01T14:37:53;11.97;;;10.43;;
19758;SDS011;10038;42.662;23.278;2022-09-01T14:40:21;12.60;;;10.73;;
19758;SDS011;10038;42.662;23.278;2022-09-01T14:42:49;15.40;;;10.40;;
19758;SDS011;10038;42.662;23.278;2022-09-01T14:45:18;11.63;;;9.90;;